• Join FlightAware (Why Join?)
  • Login
  • US Flag 
08:13PM EDT


 

Airport Tracker/Info


-or-


 

Live Flight TrackerFlight Track Log ✈ PDT4155 ✈ 21-Dec-2013 ✈ KBGM - KPHL

Flight Track Log - Related Links

Times and Time Zones

All times are in EST time to prevent confusion due to time zone crossing. See the PDT4155 flight status page for this flight to view local times or setup timezone preferences in your user account.

Time Position Orientation Groundspeed Altitude Reporting Facility
EST Latitude Longitude Course Direction KTS MPH feet Rate Location/Type
07:11AM 42.0596 -75.9309 180° South  Level Estimated
07:12AM 42.0086 -75.9313 180° South  Level FlightAware Approximate
07:13AM 41.9576 -75.9317 180° South  Level FlightAware Approximate
07:14AM 41.9065 -75.9321 180° South  Level FlightAware Approximate
07:15AM 41.8571 -75.9148 154° Southeast  Level Estimated
07:16AM 41.8062 -75.9100 176° South  Level FlightAware Approximate
07:17AM 41.7569 -75.8924 160° South  Level Estimated
07:18AM 41.7075 -75.8749 159° South  Level Estimated
07:19AM 41.6583 -75.8570 165° South  Level FlightAware Approximate
07:20AM 41.5911 -75.8332 153° Southeast  Level Estimated
07:21AM 41.5239 -75.8095 161° South  Level Estimated
07:22AM 41.4587 -75.7774 160° South  Level FlightAware Approximate
07:23AM 41.3935 -75.7454 160° South  Level FlightAware Approximate
07:24AM 41.3343 -75.7164 160° South  Level FlightAware Approximate
07:25AM 41.2750 -75.6874 160° South  Level FlightAware Approximate
07:26AM 41.2151 -75.6607 162° South  Level FlightAware Approximate
07:27AM 41.1551 -75.6344 162° South  Level FlightAware Approximate
07:28AM 41.0952 -75.6082 162° South  Level FlightAware Approximate
07:29AM 41.0352 -75.5820 162° South  Level FlightAware Approximate
07:30AM 40.9756 -75.5545 159° South  Level FlightAware Approximate
07:31AM 40.9154 -75.5294 163° South  Level FlightAware Approximate
07:32AM 40.8549 -75.5052 163° South  Level FlightAware Approximate
07:33AM 40.7945 -75.4810 163° South  Level FlightAware Approximate
07:34AM 40.7341 -75.4569 163° South  Level FlightAware Approximate
07:35AM 40.6724 -75.4603 190° South  Level FlightAware Approximate
07:36AM 40.6102 -75.4746 190° South  Level FlightAware Approximate
07:36AM 40.6833 -75.6000 188° South 215 247 6,000  Level Philadelphia TRACON
07:37AM 40.5480 -75.4890 190° South  Level FlightAware Approximate
07:37AM 40.6167 -75.5833 169° South 220 253 5,500  Level Philadelphia TRACON
07:38AM 40.4857 -75.5024 187° South  Level FlightAware Approximate
07:38AM 40.5500 -75.5833 180° South 235 270 5,000  Level Philadelphia TRACON
07:39AM 40.4230 -75.5128 187° South  Level FlightAware Approximate
07:39AM 40.4833 -75.5667 169° South 222 255 5,000  Level Philadelphia TRACON
07:40AM 40.3605 -75.5239 188° South  Level FlightAware Approximate
07:40AM 40.4333 -75.5000 135° Southeast 242 278 5,000  Level Philadelphia TRACON
07:41AM 40.2979 -75.5352 188° South  Level FlightAware Approximate
07:41AM 40.4000 -75.4500 131° Southeast 239 275 5,000  Level Philadelphia TRACON
07:42AM 40.3500 -75.3833 135° Southeast 239 275 5,000  Level Philadelphia TRACON
07:43AM 40.3000 -75.3167 135° Southeast 238 274 5,000  Level Philadelphia TRACON
07:44AM 40.2500 -75.2667 143° Southeast 222 255 5,000  Level Philadelphia TRACON
07:45AM 40.2000 -75.2500 166° South 224 258 5,000 -300 Level Philadelphia TRACON
07:46AM 40.1333 -75.2167 159° South 228 262 4,400 -540 Descending Philadelphia TRACON
07:47AM 40.0833 -75.2000 166° South 192 221 4,000 -240 Descending Philadelphia TRACON
07:48AM 40.0333 -75.1833 166° South 194 223 4,000  Level Philadelphia TRACON
07:49AM 40.0167 -75.1167 108° East 233 268 4,000 -480 Level Philadelphia TRACON
07:50AM 40.0000 -75.0333 105° East 223 257 3,100 -540 Descending Philadelphia TRACON
07:51AM 39.9833 -74.9667 108° East 207 238 3,000 -120 Descending Philadelphia TRACON
07:52AM 39.9500 -74.9667 180° South 171 197 2,900 -480 Descending Philadelphia TRACON
07:53AM 39.9333 -75.0167 247° West 164 189 2,100 -480 Descending Philadelphia TRACON
07:54AM 39.9167 -75.0667 247° West 148 170 2,000 -120 Descending Philadelphia TRACON
07:55AM 39.9000 -75.1000 237° Southwest 104 120 1,900 -420 Descending Philadelphia TRACON
07:56AM 39.9000 -75.1500 270° West 94 108 1,200 -600 Descending Philadelphia TRACON
07:57AM 39.8833 -75.1667 218° Southwest 94 108 800 -540 Descending Philadelphia TRACON
07:58AM 39.8833 -75.2000 270° West 99 114 200 -600 Descending Philadelphia TRACON